createdAt,value
2022-10-02T00:01:19.723Z,20.81
2022-10-02T00:03:47.952Z,20.80
2022-10-02T00:06:15.706Z,20.81
2022-10-02T00:08:43.392Z,20.82
2022-10-02T00:11:11.112Z,20.81
2022-10-02T00:13:38.814Z,20.77
2022-10-02T00:16:06.881Z,20.80
2022-10-02T00:18:34.960Z,20.78
2022-10-02T00:21:02.708Z,20.77
2022-10-02T00:23:30.445Z,20.77
2022-10-02T00:25:58.151Z,20.77
2022-10-02T00:28:25.927Z,20.76
2022-10-02T00:30:53.680Z,20.76
2022-10-02T00:33:21.400Z,20.76
2022-10-02T00:35:49.823Z,20.75
2022-10-02T00:38:17.465Z,20.76
2022-10-02T00:40:45.516Z,20.75
2022-10-02T00:43:13.276Z,20.75
2022-10-02T00:45:41.049Z,20.74
2022-10-02T00:48:09.081Z,20.74
2022-10-02T00:50:36.773Z,20.73
2022-10-02T00:53:04.486Z,20.72
2022-10-02T00:55:32.173Z,20.73
2022-10-02T00:58:00.114Z,20.71
2022-10-02T01:00:27.804Z,20.72
2022-10-02T01:02:55.734Z,20.70
2022-10-02T01:05:23.817Z,20.69
2022-10-02T01:07:51.675Z,20.69
2022-10-02T01:10:19.403Z,20.70
2022-10-02T01:12:47.107Z,20.68
2022-10-02T01:15:14.809Z,20.67
2022-10-02T01:17:42.711Z,20.67
2022-10-02T01:20:10.676Z,20.68
2022-10-02T01:22:38.411Z,20.68
2022-10-02T01:25:06.117Z,20.66
2022-10-02T01:27:38.749Z,20.65
2022-10-02T01:30:07.629Z,20.64
2022-10-02T01:32:35.468Z,20.65
2022-10-02T01:35:03.402Z,20.65
2022-10-02T01:37:31.104Z,20.65
2022-10-02T01:39:58.965Z,20.64
2022-10-02T01:42:26.664Z,20.63
2022-10-02T01:44:54.498Z,20.63
2022-10-02T01:47:22.248Z,20.64
2022-10-02T01:49:49.986Z,20.64
2022-10-02T01:52:17.804Z,20.64
2022-10-02T01:54:45.604Z,20.63
2022-10-02T01:57:13.271Z,20.63
2022-10-02T01:59:41.045Z,20.62
2022-10-02T02:02:08.790Z,20.61
2022-10-02T02:04:36.672Z,20.61
2022-10-02T02:07:04.586Z,20.61
2022-10-02T02:09:32.254Z,20.60
2022-10-02T02:11:59.923Z,20.60
2022-10-02T02:14:27.585Z,20.61
2022-10-02T02:16:55.481Z,20.61
2022-10-02T02:19:23.354Z,20.60
2022-10-02T02:21:51.048Z,20.61
2022-10-02T02:24:18.744Z,20.60
2022-10-02T02:26:47.122Z,20.59
2022-10-02T02:29:14.805Z,20.60
2022-10-02T02:31:42.487Z,20.58
2022-10-02T02:34:10.277Z,20.59
2022-10-02T02:36:38.394Z,20.59
2022-10-02T02:39:06.451Z,20.59
2022-10-02T02:41:34.218Z,20.57
2022-10-02T02:44:01.980Z,20.57
2022-10-02T02:46:29.757Z,20.58
2022-10-02T02:48:57.437Z,20.57
2022-10-02T02:51:25.129Z,20.58
2022-10-02T02:53:52.889Z,20.56
2022-10-02T02:56:20.594Z,20.54
2022-10-02T02:58:48.531Z,20.55
2022-10-02T03:01:16.281Z,20.55
2022-10-02T03:03:43.975Z,20.56
2022-10-02T03:06:11.950Z,20.57
2022-10-02T03:08:39.636Z,20.56
2022-10-02T03:11:07.379Z,20.54
2022-10-02T03:13:35.145Z,20.55
2022-10-02T03:16:02.839Z,20.53
2022-10-02T03:18:30.562Z,20.53
2022-10-02T03:20:58.333Z,20.52
2022-10-02T03:23:26.057Z,20.52
2022-10-02T03:25:54.000Z,20.53
2022-10-02T03:28:43.547Z,20.52
2022-10-02T03:31:09.434Z,20.51
2022-10-02T03:33:37.375Z,20.52
2022-10-02T03:36:05.170Z,20.50
2022-10-02T03:38:32.975Z,20.50
2022-10-02T03:41:00.717Z,20.50
2022-10-02T03:43:28.383Z,20.49
2022-10-02T03:45:56.173Z,20.51
2022-10-02T03:48:24.372Z,20.49
2022-10-02T03:50:52.112Z,20.51
2022-10-02T03:53:19.960Z,20.49
2022-10-02T03:55:47.664Z,20.48
2022-10-02T03:58:15.671Z,20.50
2022-10-02T04:00:43.531Z,20.51
2022-10-02T04:03:11.293Z,20.52
2022-10-02T04:05:39.202Z,20.51
2022-10-02T04:08:07.065Z,20.51
2022-10-02T04:10:37.874Z,20.50
2022-10-02T04:13:05.797Z,20.49
2022-10-02T04:15:33.497Z,20.48
2022-10-02T04:18:02.179Z,20.50
2022-10-02T04:20:31.673Z,20.49
2022-10-02T04:22:59.550Z,20.49
2022-10-02T04:25:27.246Z,20.48
2022-10-02T04:27:54.983Z,20.48
2022-10-02T04:30:22.732Z,20.47
2022-10-02T04:32:50.521Z,20.47
2022-10-02T04:35:18.309Z,20.44
2022-10-02T04:37:45.977Z,20.42
2022-10-02T04:40:13.671Z,20.40
2022-10-02T04:42:41.370Z,20.42
2022-10-02T04:45:09.088Z,20.44
2022-10-02T04:47:36.751Z,22.16
2022-10-02T04:50:04.488Z,27.75
2022-10-02T04:52:32.188Z,31.49
2022-10-02T04:54:59.963Z,33.61
2022-10-02T04:57:27.839Z,34.81
2022-10-02T04:59:55.736Z,35.33
2022-10-02T05:02:23.455Z,36.64
2022-10-02T05:04:51.724Z,38.02
2022-10-02T05:07:19.634Z,38.40
2022-10-02T05:09:47.313Z,38.06
2022-10-02T05:12:15.008Z,37.78
2022-10-02T05:14:42.705Z,37.43
2022-10-02T05:17:10.444Z,37.10
2022-10-02T05:19:38.282Z,36.98
2022-10-02T05:22:06.039Z,36.63
2022-10-02T05:24:34.922Z,35.99
2022-10-02T05:27:02.779Z,35.18
2022-10-02T05:29:30.452Z,34.37
2022-10-02T05:31:58.410Z,33.57
2022-10-02T05:34:26.331Z,32.81
2022-10-02T05:36:54.020Z,32.08
2022-10-02T05:39:22.200Z,31.43
2022-10-02T05:41:50.046Z,30.73
2022-10-02T05:44:17.788Z,30.07
2022-10-02T05:46:45.883Z,29.45
2022-10-02T05:49:13.589Z,28.85
2022-10-02T05:51:41.378Z,28.39
2022-10-02T05:54:09.094Z,28.01
2022-10-02T05:56:36.980Z,27.62
2022-10-02T05:59:05.632Z,27.25
2022-10-02T06:01:33.362Z,26.91
2022-10-02T06:04:01.331Z,26.61
2022-10-02T06:06:29.015Z,26.33
2022-10-02T06:08:58.494Z,26.08
2022-10-02T06:11:26.678Z,25.81
2022-10-02T06:13:54.543Z,25.55
2022-10-02T06:16:22.302Z,25.32
2022-10-02T06:18:50.304Z,25.10
2022-10-02T06:21:17.967Z,24.88
2022-10-02T06:23:45.750Z,24.68
2022-10-02T06:26:13.433Z,24.51
2022-10-02T06:28:41.193Z,24.32
2022-10-02T06:31:09.049Z,24.16
2022-10-02T06:33:36.792Z,24.02
2022-10-02T06:36:04.684Z,23.90
2022-10-02T06:38:32.389Z,23.85
2022-10-02T06:41:00.096Z,24.42
2022-10-02T06:43:27.842Z,25.38
2022-10-02T06:45:58.543Z,26.91
2022-10-02T06:48:26.752Z,29.10
2022-10-02T06:50:54.563Z,31.03
2022-10-02T06:53:23.028Z,32.41
2022-10-02T06:55:50.728Z,33.04
2022-10-02T06:58:18.595Z,33.05
2022-10-02T07:00:47.104Z,32.79
2022-10-02T07:03:17.445Z,32.35
2022-10-02T07:05:45.176Z,31.74
2022-10-02T07:08:13.086Z,31.06
2022-10-02T07:10:43.124Z,30.33
2022-10-02T07:13:12.062Z,29.64
2022-10-02T07:15:39.779Z,29.06
2022-10-02T07:18:07.455Z,28.63
2022-10-02T07:20:35.416Z,28.19
2022-10-02T07:23:07.533Z,27.75
2022-10-02T07:25:35.568Z,27.35
2022-10-02T07:28:03.315Z,27.01
2022-10-02T07:30:31.051Z,26.74
2022-10-02T07:32:59.348Z,26.43
2022-10-02T07:35:27.301Z,26.18
2022-10-02T07:37:54.990Z,25.91
2022-10-02T07:40:23.105Z,25.71
2022-10-02T07:42:50.927Z,25.46
2022-10-02T07:45:18.671Z,25.23
2022-10-02T07:47:46.669Z,25.02
2022-10-02T07:50:14.507Z,24.82
2022-10-02T07:52:42.658Z,24.66
2022-10-02T07:55:10.375Z,24.49
2022-10-02T07:57:38.086Z,24.30
2022-10-02T08:00:06.628Z,24.16
2022-10-02T08:02:34.576Z,24.01
2022-10-02T08:05:02.552Z,23.86
2022-10-02T08:07:30.227Z,23.59
2022-10-02T08:09:58.089Z,23.56
2022-10-02T08:12:28.206Z,23.44
2022-10-02T08:14:56.243Z,23.36
2022-10-02T08:17:24.004Z,23.28
2022-10-02T08:19:51.821Z,23.20
2022-10-02T08:22:20.468Z,23.10
2022-10-02T08:24:49.195Z,23.04
2022-10-02T08:27:17.089Z,22.96
2022-10-02T08:29:44.772Z,22.87
2022-10-02T08:32:12.872Z,22.81
2022-10-02T08:34:40.859Z,22.66
2022-10-02T08:37:08.663Z,22.57
2022-10-02T08:39:36.780Z,22.49
2022-10-02T08:42:05.544Z,22.45
2022-10-02T08:44:36.281Z,22.41
2022-10-02T08:47:04.697Z,22.41
2022-10-02T08:49:32.377Z,22.37
2022-10-02T08:52:00.343Z,22.30
2022-10-02T08:54:28.004Z,22.25
2022-10-02T08:56:56.040Z,22.21
2022-10-02T08:59:26.080Z,22.16
2022-10-02T09:01:59.712Z,22.12
2022-10-02T09:04:28.904Z,22.09
2022-10-02T09:06:56.734Z,22.06
2022-10-02T09:09:24.532Z,22.05
2022-10-02T09:11:52.288Z,22.03
2022-10-02T09:14:20.018Z,22.03
2022-10-02T09:16:48.168Z,22.03
2022-10-02T09:19:19.263Z,22.02
2022-10-02T09:21:47.060Z,22.00
2022-10-02T09:24:14.800Z,21.98
2022-10-02T09:26:42.702Z,21.96
2022-10-02T09:29:10.410Z,21.96
2022-10-02T09:31:40.270Z,21.94
2022-10-02T09:34:08.089Z,21.92
2022-10-02T09:36:36.195Z,21.82
2022-10-02T09:39:04.111Z,21.80
2022-10-02T09:41:32.037Z,21.80
2022-10-02T09:44:01.516Z,21.83
2022-10-02T09:46:30.530Z,21.78
2022-10-02T09:48:59.339Z,21.79
2022-10-02T09:51:27.318Z,21.76
2022-10-02T09:53:55.019Z,21.76
2022-10-02T09:56:22.850Z,21.74
2022-10-02T09:58:50.570Z,21.71
2022-10-02T10:01:18.309Z,21.71
2022-10-02T10:03:46.062Z,21.70
2022-10-02T10:06:14.074Z,21.67
2022-10-02T10:08:41.765Z,21.64
2022-10-02T10:11:10.716Z,21.61
2022-10-02T10:13:38.399Z,21.58
2022-10-02T10:16:06.906Z,21.58
2022-10-02T10:18:36.439Z,21.56
2022-10-02T10:21:04.118Z,21.54
2022-10-02T10:23:36.412Z,21.52
2022-10-02T10:26:04.548Z,21.51
2022-10-02T10:28:33.998Z,21.50
2022-10-02T10:31:02.234Z,21.46
2022-10-02T10:33:30.416Z,21.47
2022-10-02T10:35:58.987Z,21.49
2022-10-02T10:38:34.788Z,21.49
2022-10-02T10:41:02.506Z,21.47
2022-10-02T10:43:32.154Z,21.47
2022-10-02T10:46:00.271Z,21.45
2022-10-02T10:48:28.692Z,21.44
2022-10-02T10:50:56.644Z,21.44
2022-10-02T10:53:24.562Z,21.43
2022-10-02T10:55:52.272Z,21.44
2022-10-02T10:58:21.376Z,21.43
2022-10-02T11:00:49.061Z,21.41
2022-10-02T11:03:16.825Z,21.42
2022-10-02T11:05:44.557Z,21.41
2022-10-02T11:08:12.836Z,21.41
2022-10-02T11:10:40.583Z,21.40
2022-10-02T11:13:09.013Z,21.42
2022-10-02T11:15:37.116Z,21.41
2022-10-02T11:18:05.613Z,21.42
2022-10-02T11:20:33.387Z,21.42
2022-10-02T11:23:01.095Z,21.40
2022-10-02T11:25:28.899Z,21.42
2022-10-02T11:27:57.682Z,21.40
2022-10-02T11:30:25.560Z,21.41
2022-10-02T11:32:54.374Z,21.40
2022-10-02T11:35:23.533Z,21.38
2022-10-02T11:37:51.560Z,21.39
2022-10-02T11:40:19.228Z,21.38
2022-10-02T11:42:47.759Z,21.34
2022-10-02T11:45:15.636Z,21.33
2022-10-02T11:47:46.975Z,22.89
2022-10-02T11:50:14.724Z,26.39
2022-10-02T11:52:47.339Z,29.43
2022-10-02T11:55:15.911Z,31.25
2022-10-02T11:57:45.967Z,32.28
2022-10-02T12:00:14.861Z,32.79
2022-10-02T12:02:42.824Z,33.10
2022-10-02T12:05:10.820Z,33.38
2022-10-02T12:07:38.478Z,33.52
2022-10-02T12:10:06.187Z,33.51
2022-10-02T12:12:33.848Z,33.60
2022-10-02T12:15:01.551Z,33.41
2022-10-02T12:17:29.310Z,32.99
2022-10-02T12:20:14.891Z,32.55
2022-10-02T12:23:00.228Z,32.03
2022-10-02T12:25:45.676Z,31.37
2022-10-02T12:28:13.406Z,30.72
2022-10-02T12:30:41.154Z,30.06
2022-10-02T12:33:08.861Z,29.45
2022-10-02T12:35:38.094Z,28.88
2022-10-02T12:38:05.818Z,28.38
2022-10-02T12:40:33.494Z,27.93
2022-10-02T12:43:01.449Z,27.48
2022-10-02T12:45:29.351Z,27.12
2022-10-02T12:47:57.289Z,26.81
2022-10-02T12:50:25.102Z,26.52
2022-10-02T12:52:53.236Z,26.20
2022-10-02T12:55:21.094Z,26.01
2022-10-02T12:57:56.009Z,25.78
2022-10-02T13:00:23.896Z,25.47
2022-10-02T13:03:02.287Z,25.30
2022-10-02T13:05:32.160Z,25.05
2022-10-02T13:07:59.896Z,24.85
2022-10-02T13:10:27.642Z,24.80
2022-10-02T13:12:55.643Z,24.65
2022-10-02T13:15:23.391Z,24.51
2022-10-02T13:17:51.212Z,24.39
2022-10-02T13:20:19.072Z,24.20
2022-10-02T13:22:46.757Z,24.08
2022-10-02T13:25:15.066Z,23.96
2022-10-02T13:27:43.045Z,23.89
2022-10-02T13:30:10.800Z,23.77
2022-10-02T13:32:38.525Z,23.68
2022-10-02T13:35:06.284Z,24.01
2022-10-02T13:37:34.255Z,25.28
2022-10-02T13:40:02.121Z,26.88
2022-10-02T13:42:29.963Z,28.27
2022-10-02T13:44:58.995Z,28.92
2022-10-02T13:47:26.696Z,29.02
2022-10-02T13:49:54.726Z,28.84
2022-10-02T13:52:22.594Z,28.60
2022-10-02T13:54:50.416Z,28.29
2022-10-02T13:57:18.431Z,27.91
2022-10-02T13:59:46.297Z,27.59
2022-10-02T14:02:14.212Z,27.24
2022-10-02T14:04:42.006Z,26.95
2022-10-02T14:07:09.894Z,26.55
2022-10-02T14:09:37.813Z,26.27
2022-10-02T14:12:05.765Z,25.95
2022-10-02T14:14:35.610Z,25.67
2022-10-02T14:17:03.375Z,25.41
2022-10-02T14:19:31.367Z,25.15
2022-10-02T14:21:59.267Z,24.95
2022-10-02T14:24:47.205Z,24.79
2022-10-02T14:27:15.003Z,24.58
2022-10-02T14:29:44.422Z,24.47
2022-10-02T14:32:12.388Z,24.22
2022-10-02T14:34:40.655Z,24.13
2022-10-02T14:37:08.439Z,24.03
2022-10-02T14:39:36.294Z,23.90
2022-10-02T14:42:04.405Z,23.74
2022-10-02T14:44:32.304Z,23.64
2022-10-02T14:47:01.175Z,23.53
2022-10-02T14:49:29.363Z,23.42
2022-10-02T14:51:57.090Z,23.56
2022-10-02T14:54:24.850Z,23.89
2022-10-02T14:56:53.310Z,24.32
2022-10-02T14:59:21.062Z,24.77
2022-10-02T15:01:48.954Z,25.24
2022-10-02T15:04:16.804Z,25.81
2022-10-02T15:06:44.534Z,26.32
2022-10-02T15:09:12.435Z,26.86
2022-10-02T15:11:40.579Z,27.44
2022-10-02T15:14:08.816Z,27.82
2022-10-02T15:16:54.165Z,27.84
2022-10-02T15:19:21.926Z,27.61
2022-10-02T15:21:51.852Z,27.30
2022-10-02T15:24:19.628Z,26.95
2022-10-02T15:26:47.924Z,26.58
2022-10-02T15:29:15.786Z,26.24
2022-10-02T15:31:44.346Z,25.97
2022-10-02T15:34:12.145Z,25.75
2022-10-02T15:36:39.808Z,25.50
2022-10-02T15:39:09.932Z,25.28
2022-10-02T15:41:41.156Z,25.01
2022-10-02T15:44:08.877Z,24.79
2022-10-02T15:46:37.600Z,24.55
2022-10-02T15:49:05.695Z,24.37
2022-10-02T15:51:33.418Z,24.25
2022-10-02T15:54:01.136Z,24.12
2022-10-02T15:56:29.165Z,23.95
2022-10-02T15:58:57.025Z,23.82
2022-10-02T16:01:25.429Z,23.68
2022-10-02T16:03:53.180Z,23.51
2022-10-02T16:06:20.972Z,23.41
2022-10-02T16:08:48.671Z,23.25
2022-10-02T16:11:16.588Z,23.80
2022-10-02T16:13:47.325Z,25.38
2022-10-02T16:16:15.337Z,27.16
2022-10-02T16:18:43.105Z,28.79
2022-10-02T16:21:12.759Z,29.78
2022-10-02T16:23:40.566Z,30.06
2022-10-02T16:26:08.447Z,29.87
2022-10-02T16:28:36.731Z,29.45
2022-10-02T16:31:04.455Z,28.98
2022-10-02T16:33:32.197Z,28.48
2022-10-02T16:36:00.627Z,28.00
2022-10-02T16:38:28.376Z,27.49
2022-10-02T16:40:56.883Z,27.07
2022-10-02T16:43:24.612Z,26.72
2022-10-02T16:45:52.574Z,26.33
2022-10-02T16:48:20.296Z,25.96
2022-10-02T16:50:48.179Z,25.68
2022-10-02T16:53:16.571Z,25.42
2022-10-02T16:55:44.371Z,25.10
2022-10-02T16:58:12.269Z,24.95
2022-10-02T17:00:39.945Z,24.79
2022-10-02T17:03:08.035Z,24.60
2022-10-02T17:05:35.740Z,24.31
2022-10-02T17:08:03.661Z,24.13
2022-10-02T17:10:31.506Z,24.03
2022-10-02T17:12:59.235Z,23.86
2022-10-02T17:15:27.080Z,23.73
2022-10-02T17:17:55.288Z,23.72
2022-10-02T17:20:22.947Z,24.13
2022-10-02T17:22:50.784Z,24.61
2022-10-02T17:25:18.559Z,25.14
2022-10-02T17:27:47.205Z,25.64
2022-10-02T17:30:15.091Z,26.17
2022-10-02T17:32:42.839Z,26.66
2022-10-02T17:35:10.596Z,27.03
2022-10-02T17:37:38.325Z,27.05
2022-10-02T17:40:06.209Z,26.86
2022-10-02T17:42:34.553Z,26.60
2022-10-02T17:45:02.539Z,26.31
2022-10-02T17:47:30.520Z,26.00
2022-10-02T17:49:59.164Z,25.64
2022-10-02T17:52:44.483Z,25.31
2022-10-02T17:55:29.697Z,25.00
2022-10-02T17:57:58.593Z,24.68
2022-10-02T18:00:27.719Z,24.43
2022-10-02T18:02:55.402Z,24.20
2022-10-02T18:05:23.049Z,24.05
2022-10-02T18:07:52.116Z,23.92
2022-10-02T18:10:19.883Z,23.75
2022-10-02T18:12:47.585Z,23.61
2022-10-02T18:15:15.541Z,23.48
2022-10-02T18:17:43.281Z,23.35
2022-10-02T18:20:11.391Z,23.34
2022-10-02T18:22:39.110Z,23.20
2022-10-02T18:25:11.892Z,23.08
2022-10-02T18:27:40.480Z,23.00
2022-10-02T18:30:08.938Z,22.94
2022-10-02T18:32:37.222Z,22.91
2022-10-02T18:35:05.028Z,22.85
2022-10-02T18:37:32.901Z,22.85
2022-10-02T18:40:06.150Z,23.01
2022-10-02T18:42:41.100Z,23.89
2022-10-02T18:45:08.957Z,25.19
2022-10-02T18:47:36.933Z,26.34
2022-10-02T18:50:05.639Z,26.82
2022-10-02T18:52:46.652Z,26.84
2022-10-02T18:55:15.266Z,26.63
2022-10-02T18:57:43.108Z,26.37
2022-10-02T19:00:11.344Z,26.04
2022-10-02T19:02:39.201Z,25.72
2022-10-02T19:05:06.986Z,25.47
2022-10-02T19:07:34.769Z,25.18
2022-10-02T19:10:02.616Z,24.89
2022-10-02T19:12:30.555Z,24.66
2022-10-02T19:14:58.557Z,24.40
2022-10-02T19:17:26.974Z,24.18
2022-10-02T19:19:56.238Z,23.96
2022-10-02T19:22:24.062Z,23.74
2022-10-02T19:24:51.928Z,23.59
2022-10-02T19:27:19.822Z,23.44
2022-10-02T19:29:48.704Z,23.36
2022-10-02T19:32:17.213Z,23.25
2022-10-02T19:34:45.051Z,23.12
2022-10-02T19:37:13.002Z,23.01
2022-10-02T19:39:41.375Z,22.97
2022-10-02T19:42:09.710Z,22.87
2022-10-02T19:44:37.796Z,22.83
2022-10-02T19:47:05.647Z,22.74
2022-10-02T19:49:34.308Z,22.68
2022-10-02T19:52:02.094Z,22.67
2022-10-02T19:54:30.065Z,22.81
2022-10-02T19:56:58.002Z,22.87
2022-10-02T19:59:25.864Z,22.89
2022-10-02T20:01:53.837Z,22.83
2022-10-02T20:04:21.808Z,22.78
2022-10-02T20:06:49.933Z,22.75
2022-10-02T20:09:17.695Z,22.68
2022-10-02T20:11:45.548Z,22.62
2022-10-02T20:14:13.737Z,22.54
2022-10-02T20:16:58.928Z,22.48
2022-10-02T20:19:26.772Z,22.42
2022-10-02T20:21:54.831Z,22.37
2022-10-02T20:24:22.702Z,22.33
2022-10-02T20:26:50.790Z,22.30
2022-10-02T20:29:18.674Z,22.27
2022-10-02T20:31:46.511Z,22.21
2022-10-02T20:34:15.445Z,22.17
2022-10-02T20:36:43.302Z,22.11
2022-10-02T20:39:11.333Z,22.07
2022-10-02T20:41:41.103Z,22.05
2022-10-02T20:44:09.313Z,22.01
2022-10-02T20:46:37.146Z,22.04
2022-10-02T20:49:09.481Z,22.07
2022-10-02T20:51:45.025Z,22.07
2022-10-02T20:54:15.117Z,22.08
2022-10-02T20:56:42.889Z,22.07
2022-10-02T20:59:10.827Z,22.03
2022-10-02T21:01:40.083Z,22.01
2022-10-02T21:04:08.164Z,22.02
2022-10-02T21:06:37.249Z,22.01
2022-10-02T21:09:05.507Z,22.00
2022-10-02T21:11:33.368Z,21.99
2022-10-02T21:14:01.345Z,21.99
2022-10-02T21:16:29.347Z,21.96
2022-10-02T21:19:03.785Z,21.91
2022-10-02T21:21:31.908Z,21.87
2022-10-02T21:23:59.764Z,21.85
2022-10-02T21:26:27.873Z,21.81
2022-10-02T21:28:56.138Z,21.80
2022-10-02T21:31:24.069Z,21.79
2022-10-02T21:33:51.960Z,21.78
2022-10-02T21:36:19.837Z,21.75
2022-10-02T21:38:47.672Z,21.74
2022-10-02T21:41:15.479Z,21.73
2022-10-02T21:43:43.300Z,21.71
2022-10-02T21:46:11.304Z,21.70
2022-10-02T21:48:39.359Z,21.70
2022-10-02T21:51:07.383Z,21.67
2022-10-02T21:53:35.155Z,21.66
2022-10-02T21:56:03.394Z,21.65
2022-10-02T21:58:31.168Z,21.63
2022-10-02T22:00:59.677Z,21.62
2022-10-02T22:03:35.361Z,21.62
2022-10-02T22:06:05.391Z,21.60
2022-10-02T22:08:33.901Z,21.59
2022-10-02T22:11:01.821Z,21.58
2022-10-02T22:13:30.198Z,21.57
2022-10-02T22:15:58.110Z,21.56
2022-10-02T22:18:26.239Z,21.54
2022-10-02T22:20:54.084Z,21.52
2022-10-02T22:23:21.967Z,21.51
2022-10-02T22:25:49.848Z,21.50
2022-10-02T22:28:17.725Z,21.49
2022-10-02T22:30:45.608Z,21.48
2022-10-02T22:33:13.215Z,21.46
2022-10-02T22:35:41.078Z,21.46
2022-10-02T22:38:09.255Z,21.45
2022-10-02T22:40:37.090Z,21.44
2022-10-02T22:43:05.265Z,21.44
2022-10-02T22:45:33.362Z,21.43
2022-10-02T22:48:01.379Z,21.41
2022-10-02T22:50:29.153Z,21.41
2022-10-02T22:52:57.107Z,21.42
2022-10-02T22:55:26.202Z,21.41
2022-10-02T22:57:54.234Z,21.41
2022-10-02T23:00:22.029Z,21.40
2022-10-02T23:02:50.572Z,21.40
2022-10-02T23:05:18.447Z,21.39
2022-10-02T23:07:46.218Z,21.38
2022-10-02T23:10:14.719Z,21.37
2022-10-02T23:12:42.594Z,21.38
2022-10-02T23:15:10.560Z,21.37
2022-10-02T23:17:38.329Z,21.35
2022-10-02T23:20:06.316Z,21.34
2022-10-02T23:22:34.267Z,21.34
2022-10-02T23:25:02.041Z,21.34
2022-10-02T23:27:32.774Z,21.34
2022-10-02T23:30:01.016Z,21.34
2022-10-02T23:32:29.487Z,21.33
2022-10-02T23:34:57.465Z,21.31
2022-10-02T23:37:25.254Z,21.32
2022-10-02T23:39:53.283Z,21.31
2022-10-02T23:42:21.082Z,21.31
2022-10-02T23:44:49.816Z,21.30
2022-10-02T23:47:17.673Z,21.29
2022-10-02T23:49:45.500Z,21.29
2022-10-02T23:52:13.477Z,21.29
2022-10-02T23:54:41.265Z,21.28
2022-10-02T23:57:09.142Z,21.28
2022-10-02T23:59:36.929Z,21.27
